ブカレスト の空港の天気 - METARとTAF

アンリ・コアンダ国際空港(ブカレスト) ( LROP / OTP ) - ルーマニア ブカレスト
飛行場実況気象(Metar)
観測時間06/06 05:00 EEST (06/06 02:00 UTC)
風向・風速北東 3m/s
視程10km以上
天気現象
なし
気温11℃
湿度76%
気圧1021hPa
METARLROP 060200Z 05006KT CAVOK 11/07 Q1021 NOSIG
過去の天気等 Google飛行場航空写真 Wunderground天気予報

過去48時間のMETAR

飛行場予報(TAF)
発表時間: 6/06 02:00 EEST (6/05 23:00 UTC)
予報対象時間: 6日3時 EEST ~ 7日3時 EEST
風向・風速東南東 4m/s
視程10km以上
なし
TAF LROP 052300Z 0600/0700 12008KT CAVOK